sensor_id;sensor_type;location;lat;lon;timestamp;temperature;humidity
39925;DHT22;25592;49.986;11.618;2023-01-10T00:02:28;7.50;99.90
39925;DHT22;25592;49.986;11.618;2023-01-10T00:05:14;7.50;99.90
39925;DHT22;25592;49.986;11.618;2023-01-10T00:08:00;7.50;99.90
39925;DHT22;25592;49.986;11.618;2023-01-10T00:10:48;7.60;99.90
39925;DHT22;25592;49.986;11.618;2023-01-10T00:13:33;7.50;99.90
39925;DHT22;25592;49.986;11.618;2023-01-10T00:16:19;7.60;99.90
39925;DHT22;25592;49.986;11.618;2023-01-10T00:19:05;7.50;99.90
39925;DHT22;25592;49.986;11.618;2023-01-10T00:21:51;7.50;99.90
39925;DHT22;25592;49.986;11.618;2023-01-10T00:24:36;7.50;99.90
39925;DHT22;25592;49.986;11.618;2023-01-10T00:27:23;7.50;99.90
39925;DHT22;25592;49.986;11.618;2023-01-10T00:30:09;7.50;99.90
39925;DHT22;25592;49.986;11.618;2023-01-10T00:32:58;7.50;99.90
39925;DHT22;25592;49.986;11.618;2023-01-10T00:35:43;7.40;99.90
39925;DHT22;25592;49.986;11.618;2023-01-10T00:38:29;7.30;99.90
39925;DHT22;25592;49.986;11.618;2023-01-10T00:41:17;7.30;99.90
39925;DHT22;25592;49.986;11.618;2023-01-10T00:44:21;7.20;99.90
39925;DHT22;25592;49.986;11.618;2023-01-10T00:47:06;7.20;99.90
39925;DHT22;25592;49.986;11.618;2023-01-10T00:49:51;7.20;99.90
39925;DHT22;25592;49.986;11.618;2023-01-10T00:52:37;7.10;99.90
39925;DHT22;25592;49.986;11.618;2023-01-10T00:55:22;7.20;99.90
39925;DHT22;25592;49.986;11.618;2023-01-10T00:58:08;7.20;99.90
39925;DHT22;25592;49.986;11.618;2023-01-10T01:00:55;7.30;99.90
39925;DHT22;25592;49.986;11.618;2023-01-10T01:03:40;7.40;99.90
39925;DHT22;25592;49.986;11.618;2023-01-10T01:06:26;7.40;99.90
39925;DHT22;25592;49.986;11.618;2023-01-10T01:09:12;7.40;99.90
39925;DHT22;25592;49.986;11.618;2023-01-10T01:11:57;7.40;99.90
39925;DHT22;25592;49.986;11.618;2023-01-10T01:14:43;7.40;99.90
39925;DHT22;25592;49.986;11.618;2023-01-10T01:17:28;7.50;99.90
39925;DHT22;25592;49.986;11.618;2023-01-10T01:20:14;7.50;99.90
39925;DHT22;25592;49.986;11.618;2023-01-10T01:22:59;7.50;99.90
39925;DHT22;25592;49.986;11.618;2023-01-10T01:25:52;7.40;99.90
39925;DHT22;25592;49.986;11.618;2023-01-10T01:28:37;7.50;99.90
39925;DHT22;25592;49.986;11.618;2023-01-10T01:31:23;7.50;99.90
39925;DHT22;25592;49.986;11.618;2023-01-10T01:34:08;7.50;99.90
39925;DHT22;25592;49.986;11.618;2023-01-10T01:36:53;7.50;99.90
39925;DHT22;25592;49.986;11.618;2023-01-10T01:39:40;7.50;99.90
39925;DHT22;25592;49.986;11.618;2023-01-10T01:53:57;7.40;99.90
39925;DHT22;25592;49.986;11.618;2023-01-10T01:56:54;7.40;99.90
39925;DHT22;25592;49.986;11.618;2023-01-10T01:59:45;7.40;99.90
39925;DHT22;25592;49.986;11.618;2023-01-10T02:02:37;7.40;99.90
39925;DHT22;25592;49.986;11.618;2023-01-10T02:05:34;7.30;99.90
39925;DHT22;25592;49.986;11.618;2023-01-10T02:08:20;7.30;99.90
39925;DHT22;25592;49.986;11.618;2023-01-10T02:11:08;7.20;99.90
39925;DHT22;25592;49.986;11.618;2023-01-10T02:13:56;7.20;99.90
39925;DHT22;25592;49.986;11.618;2023-01-10T02:16:41;7.10;99.90
39925;DHT22;25592;49.986;11.618;2023-01-10T02:19:49;7.20;99.90
39925;DHT22;25592;49.986;11.618;2023-01-10T02:25:55;7.20;99.90
39925;DHT22;25592;49.986;11.618;2023-01-10T02:29:21;7.20;99.90
39925;DHT22;25592;49.986;11.618;2023-01-10T02:32:37;7.10;99.90
39925;DHT22;25592;49.986;11.618;2023-01-10T02:39:15;6.80;99.90
39925;DHT22;25592;49.986;11.618;2023-01-10T02:42:26;6.50;99.90
39925;DHT22;25592;49.986;11.618;2023-01-10T02:45:23;6.30;99.90
39925;DHT22;25592;49.986;11.618;2023-01-10T02:48:08;6.20;99.90
39925;DHT22;25592;49.986;11.618;2023-01-10T02:51:03;6.10;99.90
39925;DHT22;25592;49.986;11.618;2023-01-10T03:03:25;6.20;99.90
39925;DHT22;25592;49.986;11.618;2023-01-10T03:09:14;6.30;99.90
39925;DHT22;25592;49.986;11.618;2023-01-10T03:12:11;6.30;99.90
39925;DHT22;25592;49.986;11.618;2023-01-10T03:14:58;6.30;99.90
39925;DHT22;25592;49.986;11.618;2023-01-10T03:17:48;6.40;99.90
39925;DHT22;25592;49.986;11.618;2023-01-10T03:20:35;6.40;99.90
39925;DHT22;25592;49.986;11.618;2023-01-10T03:23:22;6.40;99.90
39925;DHT22;25592;49.986;11.618;2023-01-10T03:26:09;6.50;99.90
39925;DHT22;25592;49.986;11.618;2023-01-10T03:29:00;6.50;99.90
39925;DHT22;25592;49.986;11.618;2023-01-10T03:31:51;6.60;99.90
39925;DHT22;25592;49.986;11.618;2023-01-10T03:34:38;6.50;99.90
39925;DHT22;25592;49.986;11.618;2023-01-10T03:37:37;6.60;99.90
39925;DHT22;25592;49.986;11.618;2023-01-10T03:40:31;6.40;99.90
39925;DHT22;25592;49.986;11.618;2023-01-10T03:43:25;6.40;99.90
39925;DHT22;25592;49.986;11.618;2023-01-10T03:46:58;6.50;99.90
39925;DHT22;25592;49.986;11.618;2023-01-10T03:49:47;6.60;99.90
39925;DHT22;25592;49.986;11.618;2023-01-10T03:52:34;6.50;99.90
39925;DHT22;25592;49.986;11.618;2023-01-10T03:55:23;6.60;99.90
39925;DHT22;25592;49.986;11.618;2023-01-10T03:58:10;6.60;99.90
39925;DHT22;25592;49.986;11.618;2023-01-10T04:00:55;6.60;99.90
39925;DHT22;25592;49.986;11.618;2023-01-10T04:03:41;6.70;99.90
39925;DHT22;25592;49.986;11.618;2023-01-10T04:06:26;6.80;99.90
39925;DHT22;25592;49.986;11.618;2023-01-10T04:09:12;6.80;99.90
39925;DHT22;25592;49.986;11.618;2023-01-10T04:11:57;6.80;99.90
39925;DHT22;25592;49.986;11.618;2023-01-10T04:14:43;6.80;99.90
39925;DHT22;25592;49.986;11.618;2023-01-10T04:17:31;6.80;99.90
39925;DHT22;25592;49.986;11.618;2023-01-10T04:20:17;6.80;99.90
39925;DHT22;25592;49.986;11.618;2023-01-10T04:23:02;6.80;99.90
39925;DHT22;25592;49.986;11.618;2023-01-10T04:25:47;6.80;99.90
39925;DHT22;25592;49.986;11.618;2023-01-10T04:28:33;6.80;99.90
39925;DHT22;25592;49.986;11.618;2023-01-10T04:31:18;6.70;99.90
39925;DHT22;25592;49.986;11.618;2023-01-10T04:34:03;6.80;99.90
39925;DHT22;25592;49.986;11.618;2023-01-10T04:36:49;6.80;99.90
39925;DHT22;25592;49.986;11.618;2023-01-10T04:39:34;6.80;99.90
39925;DHT22;25592;49.986;11.618;2023-01-10T04:42:20;6.80;99.90
39925;DHT22;25592;49.986;11.618;2023-01-10T04:45:06;6.80;99.90
39925;DHT22;25592;49.986;11.618;2023-01-10T04:47:51;6.80;99.90
39925;DHT22;25592;49.986;11.618;2023-01-10T04:50:40;6.80;99.90
39925;DHT22;25592;49.986;11.618;2023-01-10T04:53:25;6.80;99.90
39925;DHT22;25592;49.986;11.618;2023-01-10T04:56:15;6.70;99.90
39925;DHT22;25592;49.986;11.618;2023-01-10T04:59:01;6.60;99.90
39925;DHT22;25592;49.986;11.618;2023-01-10T05:01:47;6.70;99.90
39925;DHT22;25592;49.986;11.618;2023-01-10T05:04:33;6.70;99.90
39925;DHT22;25592;49.986;11.618;2023-01-10T05:07:18;6.80;99.90
39925;DHT22;25592;49.986;11.618;2023-01-10T05:10:04;6.80;99.90
39925;DHT22;25592;49.986;11.618;2023-01-10T05:12:50;6.80;99.90
39925;DHT22;25592;49.986;11.618;2023-01-10T05:15:35;6.80;99.90
39925;DHT22;25592;49.986;11.618;2023-01-10T05:18:21;6.80;99.90
39925;DHT22;25592;49.986;11.618;2023-01-10T05:21:09;6.80;99.90
39925;DHT22;25592;49.986;11.618;2023-01-10T05:23:54;6.80;99.90
39925;DHT22;25592;49.986;11.618;2023-01-10T05:26:39;6.80;99.90
39925;DHT22;25592;49.986;11.618;2023-01-10T05:29:25;6.90;99.90
39925;DHT22;25592;49.986;11.618;2023-01-10T05:32:10;6.90;99.90
39925;DHT22;25592;49.986;11.618;2023-01-10T05:34:56;7.00;99.90
39925;DHT22;25592;49.986;11.618;2023-01-10T05:37:41;7.00;99.90
39925;DHT22;25592;49.986;11.618;2023-01-10T05:40:26;7.00;99.90
39925;DHT22;25592;49.986;11.618;2023-01-10T05:43:12;7.00;99.90
39925;DHT22;25592;49.986;11.618;2023-01-10T05:45:57;6.90;99.90
39925;DHT22;25592;49.986;11.618;2023-01-10T05:48:42;6.80;99.90
39925;DHT22;25592;49.986;11.618;2023-01-10T05:51:28;6.80;99.90
39925;DHT22;25592;49.986;11.618;2023-01-10T05:54:13;6.80;99.90
39925;DHT22;25592;49.986;11.618;2023-01-10T05:56:59;6.80;99.90
39925;DHT22;25592;49.986;11.618;2023-01-10T05:59:44;6.80;99.90
39925;DHT22;25592;49.986;11.618;2023-01-10T06:02:29;6.70;99.90
39925;DHT22;25592;49.986;11.618;2023-01-10T06:05:15;6.70;99.90
39925;DHT22;25592;49.986;11.618;2023-01-10T06:08:00;6.80;99.90
39925;DHT22;25592;49.986;11.618;2023-01-10T06:10:46;6.80;99.90
39925;DHT22;25592;49.986;11.618;2023-01-10T06:13:31;6.80;99.90
39925;DHT22;25592;49.986;11.618;2023-01-10T06:16:17;6.80;99.90
39925;DHT22;25592;49.986;11.618;2023-01-10T06:19:02;6.80;99.90
39925;DHT22;25592;49.986;11.618;2023-01-10T06:21:48;6.90;99.90
39925;DHT22;25592;49.986;11.618;2023-01-10T06:24:33;6.80;99.90
39925;DHT22;25592;49.986;11.618;2023-01-10T06:27:18;7.00;99.90
39925;DHT22;25592;49.986;11.618;2023-01-10T06:30:04;7.00;99.90
39925;DHT22;25592;49.986;11.618;2023-01-10T06:32:49;7.00;99.90
39925;DHT22;25592;49.986;11.618;2023-01-10T06:35:35;6.90;99.90
39925;DHT22;25592;49.986;11.618;2023-01-10T06:38:21;6.90;99.90
39925;DHT22;25592;49.986;11.618;2023-01-10T06:41:06;6.90;99.90
39925;DHT22;25592;49.986;11.618;2023-01-10T06:43:57;6.90;99.90
39925;DHT22;25592;49.986;11.618;2023-01-10T06:46:42;6.80;99.90
39925;DHT22;25592;49.986;11.618;2023-01-10T06:49:28;6.90;99.90
39925;DHT22;25592;49.986;11.618;2023-01-10T06:52:14;6.80;99.90
39925;DHT22;25592;49.986;11.618;2023-01-10T06:54:59;6.90;99.90
39925;DHT22;25592;49.986;11.618;2023-01-10T06:57:45;6.80;99.90
39925;DHT22;25592;49.986;11.618;2023-01-10T07:00:30;6.90;99.90
39925;DHT22;25592;49.986;11.618;2023-01-10T07:03:16;6.80;99.90
39925;DHT22;25592;49.986;11.618;2023-01-10T07:06:02;6.90;99.90
39925;DHT22;25592;49.986;11.618;2023-01-10T07:08:47;6.80;99.90
39925;DHT22;25592;49.986;11.618;2023-01-10T07:11:34;6.80;99.90
39925;DHT22;25592;49.986;11.618;2023-01-10T07:14:19;6.90;99.90
39925;DHT22;25592;49.986;11.618;2023-01-10T07:17:04;7.00;99.90
39925;DHT22;25592;49.986;11.618;2023-01-10T07:19:50;7.10;99.90
39925;DHT22;25592;49.986;11.618;2023-01-10T07:22:35;7.20;99.90
39925;DHT22;25592;49.986;11.618;2023-01-10T07:25:21;7.20;99.90
39925;DHT22;25592;49.986;11.618;2023-01-10T07:28:06;7.20;99.90
39925;DHT22;25592;49.986;11.618;2023-01-10T07:30:52;7.20;99.90
39925;DHT22;25592;49.986;11.618;2023-01-10T07:33:37;7.10;99.90
39925;DHT22;25592;49.986;11.618;2023-01-10T07:36:22;7.10;99.90
39925;DHT22;25592;49.986;11.618;2023-01-10T07:39:08;7.00;99.90
39925;DHT22;25592;49.986;11.618;2023-01-10T07:41:53;7.10;99.90
39925;DHT22;25592;49.986;11.618;2023-01-10T07:44:39;7.10;99.90
39925;DHT22;25592;49.986;11.618;2023-01-10T07:47:24;7.00;99.90
39925;DHT22;25592;49.986;11.618;2023-01-10T07:50:10;7.10;99.90
39925;DHT22;25592;49.986;11.618;2023-01-10T07:52:55;7.10;99.90
39925;DHT22;25592;49.986;11.618;2023-01-10T07:55:40;7.20;99.90
39925;DHT22;25592;49.986;11.618;2023-01-10T07:58:27;7.20;99.90
39925;DHT22;25592;49.986;11.618;2023-01-10T08:01:12;7.30;99.90
39925;DHT22;25592;49.986;11.618;2023-01-10T08:03:58;7.20;99.90
39925;DHT22;25592;49.986;11.618;2023-01-10T08:06:43;7.30;99.90
39925;DHT22;25592;49.986;11.618;2023-01-10T08:09:29;7.30;99.90
39925;DHT22;25592;49.986;11.618;2023-01-10T08:12:14;7.20;99.90
39925;DHT22;25592;49.986;11.618;2023-01-10T08:14:59;7.20;99.90
39925;DHT22;25592;49.986;11.618;2023-01-10T08:17:45;7.30;99.90
39925;DHT22;25592;49.986;11.618;2023-01-10T08:20:30;7.20;99.90
39925;DHT22;25592;49.986;11.618;2023-01-10T08:23:16;7.10;99.90
39925;DHT22;25592;49.986;11.618;2023-01-10T08:26:02;7.20;99.90
39925;DHT22;25592;49.986;11.618;2023-01-10T08:28:47;7.10;99.90
39925;DHT22;25592;49.986;11.618;2023-01-10T08:31:33;7.10;99.90
39925;DHT22;25592;49.986;11.618;2023-01-10T08:34:19;7.10;99.90
39925;DHT22;25592;49.986;11.618;2023-01-10T08:37:04;7.00;99.90
39925;DHT22;25592;49.986;11.618;2023-01-10T08:39:49;7.00;99.90
39925;DHT22;25592;49.986;11.618;2023-01-10T08:42:34;6.90;99.90
39925;DHT22;25592;49.986;11.618;2023-01-10T08:45:20;6.70;99.90
39925;DHT22;25592;49.986;11.618;2023-01-10T08:48:06;6.80;99.90
39925;DHT22;25592;49.986;11.618;2023-01-10T08:50:53;6.70;99.90
39925;DHT22;25592;49.986;11.618;2023-01-10T08:53:39;6.80;99.90
39925;DHT22;25592;49.986;11.618;2023-01-10T08:56:24;6.90;99.90
39925;DHT22;25592;49.986;11.618;2023-01-10T08:59:09;7.00;99.90
39925;DHT22;25592;49.986;11.618;2023-01-10T09:01:54;7.00;99.90
39925;DHT22;25592;49.986;11.618;2023-01-10T09:04:42;7.00;99.90
39925;DHT22;25592;49.986;11.618;2023-01-10T09:07:28;7.00;99.90
39925;DHT22;25592;49.986;11.618;2023-01-10T09:10:13;6.90;99.90
39925;DHT22;25592;49.986;11.618;2023-01-10T09:12:59;7.10;99.90
39925;DHT22;25592;49.986;11.618;2023-01-10T09:15:45;7.10;99.90
39925;DHT22;25592;49.986;11.618;2023-01-10T09:18:31;7.10;99.90
39925;DHT22;25592;49.986;11.618;2023-01-10T09:21:18;7.00;99.90
39925;DHT22;25592;49.986;11.618;2023-01-10T09:24:04;7.00;99.90
39925;DHT22;25592;49.986;11.618;2023-01-10T09:26:51;7.10;99.90
39925;DHT22;25592;49.986;11.618;2023-01-10T09:29:36;7.20;99.90
39925;DHT22;25592;49.986;11.618;2023-01-10T09:32:22;7.20;99.90
39925;DHT22;25592;49.986;11.618;2023-01-10T09:35:07;7.20;99.90
39925;DHT22;25592;49.986;11.618;2023-01-10T09:37:54;7.20;99.90
39925;DHT22;25592;49.986;11.618;2023-01-10T09:46:52;6.80;99.90
39925;DHT22;25592;49.986;11.618;2023-01-10T09:52:45;6.80;99.90
39925;DHT22;25592;49.986;11.618;2023-01-10T09:55:34;6.80;99.90
39925;DHT22;25592;49.986;11.618;2023-01-10T09:58:23;6.70;99.90
39925;DHT22;25592;49.986;11.618;2023-01-10T10:01:18;6.90;99.90
39925;DHT22;25592;49.986;11.618;2023-01-10T10:04:29;6.90;99.90
39925;DHT22;25592;49.986;11.618;2023-01-10T10:07:17;6.90;99.90
39925;DHT22;25592;49.986;11.618;2023-01-10T10:10:34;7.00;99.90
39925;DHT22;25592;49.986;11.618;2023-01-10T10:16:41;7.20;99.90
39925;DHT22;25592;49.986;11.618;2023-01-10T10:19:34;7.20;99.90
39925;DHT22;25592;49.986;11.618;2023-01-10T10:22:47;7.20;99.90
39925;DHT22;25592;49.986;11.618;2023-01-10T10:25:59;7.20;99.90
39925;DHT22;25592;49.986;11.618;2023-01-10T10:32:20;7.20;99.90
39925;DHT22;25592;49.986;11.618;2023-01-10T10:35:30;7.30;99.90
39925;DHT22;25592;49.986;11.618;2023-01-10T10:38:21;7.40;99.90
39925;DHT22;25592;49.986;11.618;2023-01-10T10:41:16;7.40;99.90
39925;DHT22;25592;49.986;11.618;2023-01-10T10:44:25;7.50;99.90
39925;DHT22;25592;49.986;11.618;2023-01-10T10:47:15;7.50;99.90
39925;DHT22;25592;49.986;11.618;2023-01-10T10:53:00;7.30;99.90
39925;DHT22;25592;49.986;11.618;2023-01-10T10:55:47;7.30;99.90
39925;DHT22;25592;49.986;11.618;2023-01-10T10:58:32;7.30;99.90
39925;DHT22;25592;49.986;11.618;2023-01-10T11:01:18;7.10;99.90
39925;DHT22;25592;49.986;11.618;2023-01-10T11:04:08;7.10;99.90
39925;DHT22;25592;49.986;11.618;2023-01-10T11:06:56;7.10;99.90
39925;DHT22;25592;49.986;11.618;2023-01-10T11:09:41;7.00;99.90
39925;DHT22;25592;49.986;11.618;2023-01-10T11:12:40;7.10;99.90
39925;DHT22;25592;49.986;11.618;2023-01-10T11:15:37;7.10;99.90
39925;DHT22;25592;49.986;11.618;2023-01-10T11:18:25;7.00;99.90
39925;DHT22;25592;49.986;11.618;2023-01-10T11:21:12;6.90;99.90
39925;DHT22;25592;49.986;11.618;2023-01-10T11:23:58;6.80;99.90
39925;DHT22;25592;49.986;11.618;2023-01-10T11:26:43;6.70;99.90
39925;DHT22;25592;49.986;11.618;2023-01-10T11:29:43;6.80;99.90
39925;DHT22;25592;49.986;11.618;2023-01-10T11:32:37;6.80;99.90
39925;DHT22;25592;49.986;11.618;2023-01-10T11:35:34;6.70;99.90
39925;DHT22;25592;49.986;11.618;2023-01-10T11:38:21;6.80;99.90
39925;DHT22;25592;49.986;11.618;2023-01-10T11:41:27;6.80;99.90
39925;DHT22;25592;49.986;11.618;2023-01-10T11:44:24;6.80;99.90
39925;DHT22;25592;49.986;11.618;2023-01-10T11:47:10;6.80;99.90
39925;DHT22;25592;49.986;11.618;2023-01-10T11:49:58;6.90;99.90
39925;DHT22;25592;49.986;11.618;2023-01-10T11:52:45;7.00;99.90
39925;DHT22;25592;49.986;11.618;2023-01-10T11:55:33;6.90;99.90
39925;DHT22;25592;49.986;11.618;2023-01-10T11:58:18;6.90;99.90
39925;DHT22;25592;49.986;11.618;2023-01-10T12:01:04;6.90;99.90
39925;DHT22;25592;49.986;11.618;2023-01-10T12:03:50;6.80;99.90
39925;DHT22;25592;49.986;11.618;2023-01-10T12:06:35;6.80;99.90
39925;DHT22;25592;49.986;11.618;2023-01-10T12:09:42;6.80;99.90
39925;DHT22;25592;49.986;11.618;2023-01-10T12:12:30;6.70;99.90
39925;DHT22;25592;49.986;11.618;2023-01-10T12:15:28;6.70;99.90
39925;DHT22;25592;49.986;11.618;2023-01-10T12:18:14;6.60;99.90
39925;DHT22;25592;49.986;11.618;2023-01-10T12:21:01;6.70;99.90
39925;DHT22;25592;49.986;11.618;2023-01-10T12:23:48;6.80;99.90
39925;DHT22;25592;49.986;11.618;2023-01-10T12:26:35;6.70;99.90
39925;DHT22;25592;49.986;11.618;2023-01-10T12:29:25;6.90;99.90
39925;DHT22;25592;49.986;11.618;2023-01-10T12:32:17;7.00;99.90
39925;DHT22;25592;49.986;11.618;2023-01-10T12:35:10;7.00;99.90
39925;DHT22;25592;49.986;11.618;2023-01-10T12:41:06;7.00;99.90
39925;DHT22;25592;49.986;11.618;2023-01-10T12:43:52;7.00;99.90
39925;DHT22;25592;49.986;11.618;2023-01-10T12:47:11;7.00;99.90
39925;DHT22;25592;49.986;11.618;2023-01-10T12:50:11;6.90;99.90
39925;DHT22;25592;49.986;11.618;2023-01-10T12:55:48;7.00;99.90
39925;DHT22;25592;49.986;11.618;2023-01-10T13:01:35;7.00;99.90
39925;DHT22;25592;49.986;11.618;2023-01-10T13:04:25;7.00;99.90
39925;DHT22;25592;49.986;11.618;2023-01-10T13:07:11;7.00;99.90
39925;DHT22;25592;49.986;11.618;2023-01-10T13:09:57;7.20;99.90
39925;DHT22;25592;49.986;11.618;2023-01-10T13:12:50;7.10;99.90
39925;DHT22;25592;49.986;11.618;2023-01-10T13:15:53;7.00;99.90
39925;DHT22;25592;49.986;11.618;2023-01-10T13:21:46;7.10;99.90
39925;DHT22;25592;49.986;11.618;2023-01-10T13:24:32;7.00;99.90
39925;DHT22;25592;49.986;11.618;2023-01-10T13:27:19;6.80;99.90
39925;DHT22;25592;49.986;11.618;2023-01-10T13:30:06;6.60;99.90
39925;DHT22;25592;49.986;11.618;2023-01-10T13:33:20;6.40;99.90
39925;DHT22;25592;49.986;11.618;2023-01-10T13:36:11;6.40;99.90
39925;DHT22;25592;49.986;11.618;2023-01-10T13:39:04;6.50;99.90
39925;DHT22;25592;49.986;11.618;2023-01-10T13:50:48;6.70;99.90
39925;DHT22;25592;49.986;11.618;2023-01-10T13:56:39;6.90;99.90
39925;DHT22;25592;49.986;11.618;2023-01-10T14:02:29;6.70;99.90
39925;DHT22;25592;49.986;11.618;2023-01-10T14:05:17;6.80;99.90
39925;DHT22;25592;49.986;11.618;2023-01-10T14:08:14;6.80;99.90
39925;DHT22;25592;49.986;11.618;2023-01-10T14:11:10;6.90;99.90
39925;DHT22;25592;49.986;11.618;2023-01-10T14:13:59;6.70;99.90
39925;DHT22;25592;49.986;11.618;2023-01-10T14:16:48;6.70;99.90
39925;DHT22;25592;49.986;11.618;2023-01-10T14:19:35;6.80;99.90
39925;DHT22;25592;49.986;11.618;2023-01-10T14:22:24;6.70;99.90
39925;DHT22;25592;49.986;11.618;2023-01-10T14:25:20;6.80;99.90
39925;DHT22;25592;49.986;11.618;2023-01-10T14:28:20;6.70;99.90
39925;DHT22;25592;49.986;11.618;2023-01-10T14:31:17;6.80;99.90
39925;DHT22;25592;49.986;11.618;2023-01-10T14:34:09;6.70;99.90
39925;DHT22;25592;49.986;11.618;2023-01-10T14:37:02;6.60;99.90
39925;DHT22;25592;49.986;11.618;2023-01-10T14:39:49;6.70;99.90
39925;DHT22;25592;49.986;11.618;2023-01-10T14:42:37;6.70;99.90
39925;DHT22;25592;49.986;11.618;2023-01-10T14:45:37;6.80;99.90
39925;DHT22;25592;49.986;11.618;2023-01-10T14:48:29;6.80;99.90
39925;DHT22;25592;49.986;11.618;2023-01-10T14:51:22;6.80;99.90
39925;DHT22;25592;49.986;11.618;2023-01-10T14:54:12;6.80;99.90
39925;DHT22;25592;49.986;11.618;2023-01-10T14:56:58;6.70;99.90
39925;DHT22;25592;49.986;11.618;2023-01-10T14:59:43;6.70;99.90
39925;DHT22;25592;49.986;11.618;2023-01-10T15:02:29;6.80;99.90
39925;DHT22;25592;49.986;11.618;2023-01-10T15:05:23;6.80;99.90
39925;DHT22;25592;49.986;11.618;2023-01-10T15:11:02;6.80;99.90
39925;DHT22;25592;49.986;11.618;2023-01-10T15:13:53;6.60;99.90
39925;DHT22;25592;49.986;11.618;2023-01-10T15:16:45;6.50;99.90
39925;DHT22;25592;49.986;11.618;2023-01-10T15:19:33;6.40;99.90
39925;DHT22;25592;49.986;11.618;2023-01-10T15:22:32;6.50;99.90
39925;DHT22;25592;49.986;11.618;2023-01-10T15:25:25;6.50;99.90
39925;DHT22;25592;49.986;11.618;2023-01-10T15:28:17;6.50;99.90
39925;DHT22;25592;49.986;11.618;2023-01-10T15:31:04;6.50;99.90
39925;DHT22;25592;49.986;11.618;2023-01-10T15:33:50;6.30;99.90
39925;DHT22;25592;49.986;11.618;2023-01-10T15:36:45;6.40;99.90
39925;DHT22;25592;49.986;11.618;2023-01-10T15:39:38;6.40;99.90
39925;DHT22;25592;49.986;11.618;2023-01-10T15:42:25;6.30;99.90
39925;DHT22;25592;49.986;11.618;2023-01-10T15:45:31;6.20;99.90
39925;DHT22;25592;49.986;11.618;2023-01-10T15:51:34;6.30;99.90
39925;DHT22;25592;49.986;11.618;2023-01-10T15:57:26;6.30;99.90
39925;DHT22;25592;49.986;11.618;2023-01-10T16:00:16;6.40;99.90
39925;DHT22;25592;49.986;11.618;2023-01-10T16:03:32;6.40;99.90
39925;DHT22;25592;49.986;11.618;2023-01-10T16:09:20;6.50;99.90
39925;DHT22;25592;49.986;11.618;2023-01-10T16:12:32;6.60;99.90
39925;DHT22;25592;49.986;11.618;2023-01-10T16:15:39;6.60;99.90
39925;DHT22;25592;49.986;11.618;2023-01-10T16:18:26;6.60;99.90
39925;DHT22;25592;49.986;11.618;2023-01-10T16:21:12;6.60;99.90
39925;DHT22;25592;49.986;11.618;2023-01-10T16:23:58;6.60;99.90
39925;DHT22;25592;49.986;11.618;2023-01-10T16:26:43;6.60;99.90
39925;DHT22;25592;49.986;11.618;2023-01-10T16:29:29;6.60;99.90
39925;DHT22;25592;49.986;11.618;2023-01-10T16:32:14;6.50;99.90
39925;DHT22;25592;49.986;11.618;2023-01-10T16:35:00;6.40;99.90
39925;DHT22;25592;49.986;11.618;2023-01-10T16:37:46;6.40;99.90
39925;DHT22;25592;49.986;11.618;2023-01-10T16:40:34;6.50;99.90
39925;DHT22;25592;49.986;11.618;2023-01-10T16:43:20;6.60;99.90
39925;DHT22;25592;49.986;11.618;2023-01-10T16:46:06;6.60;99.90
39925;DHT22;25592;49.986;11.618;2023-01-10T16:48:51;6.60;99.90
39925;DHT22;25592;49.986;11.618;2023-01-10T16:51:39;6.30;99.90
39925;DHT22;25592;49.986;11.618;2023-01-10T16:54:24;6.20;99.90
39925;DHT22;25592;49.986;11.618;2023-01-10T16:57:10;6.20;99.90
39925;DHT22;25592;49.986;11.618;2023-01-10T16:59:56;6.30;99.90
39925;DHT22;25592;49.986;11.618;2023-01-10T17:02:42;6.30;99.90
39925;DHT22;25592;49.986;11.618;2023-01-10T17:05:28;6.60;99.90
39925;DHT22;25592;49.986;11.618;2023-01-10T17:08:19;6.80;99.90
39925;DHT22;25592;49.986;11.618;2023-01-10T17:11:09;6.80;99.90
39925;DHT22;25592;49.986;11.618;2023-01-10T17:13:55;6.70;99.90
39925;DHT22;25592;49.986;11.618;2023-01-10T17:16:41;6.70;99.90
39925;DHT22;25592;49.986;11.618;2023-01-10T17:19:27;6.80;99.90
39925;DHT22;25592;49.986;11.618;2023-01-10T17:22:13;6.80;99.90
39925;DHT22;25592;49.986;11.618;2023-01-10T17:24:58;6.80;99.90
39925;DHT22;25592;49.986;11.618;2023-01-10T17:27:44;7.00;99.90
39925;DHT22;25592;49.986;11.618;2023-01-10T17:30:29;6.90;99.90
39925;DHT22;25592;49.986;11.618;2023-01-10T17:33:14;7.00;99.90
39925;DHT22;25592;49.986;11.618;2023-01-10T17:36:00;6.90;99.90
39925;DHT22;25592;49.986;11.618;2023-01-10T17:38:45;6.90;99.90
39925;DHT22;25592;49.986;11.618;2023-01-10T17:41:31;6.80;99.90
39925;DHT22;25592;49.986;11.618;2023-01-10T17:44:16;6.80;99.90
39925;DHT22;25592;49.986;11.618;2023-01-10T17:47:01;6.80;99.90
39925;DHT22;25592;49.986;11.618;2023-01-10T17:49:47;6.80;99.90
39925;DHT22;25592;49.986;11.618;2023-01-10T17:52:32;6.80;99.90
39925;DHT22;25592;49.986;11.618;2023-01-10T17:55:18;6.90;99.90
39925;DHT22;25592;49.986;11.618;2023-01-10T17:58:03;7.00;99.90
39925;DHT22;25592;49.986;11.618;2023-01-10T18:00:48;7.00;99.90
39925;DHT22;25592;49.986;11.618;2023-01-10T18:03:34;7.00;99.90
39925;DHT22;25592;49.986;11.618;2023-01-10T18:06:20;7.00;99.90
39925;DHT22;25592;49.986;11.618;2023-01-10T18:09:09;7.00;99.90
39925;DHT22;25592;49.986;11.618;2023-01-10T18:11:55;7.00;99.90
39925;DHT22;25592;49.986;11.618;2023-01-10T18:14:40;7.10;99.90
39925;DHT22;25592;49.986;11.618;2023-01-10T18:17:26;7.10;99.90
39925;DHT22;25592;49.986;11.618;2023-01-10T18:20:11;7.10;99.90
39925;DHT22;25592;49.986;11.618;2023-01-10T18:22:56;7.20;99.90
39925;DHT22;25592;49.986;11.618;2023-01-10T18:26:05;7.10;99.90
39925;DHT22;25592;49.986;11.618;2023-01-10T18:28:51;7.20;99.90
39925;DHT22;25592;49.986;11.618;2023-01-10T18:31:37;7.20;99.90
39925;DHT22;25592;49.986;11.618;2023-01-10T18:34:23;7.20;99.90
39925;DHT22;25592;49.986;11.618;2023-01-10T18:37:09;7.10;99.90
39925;DHT22;25592;49.986;11.618;2023-01-10T18:39:54;7.00;99.90
39925;DHT22;25592;49.986;11.618;2023-01-10T18:42:39;7.00;99.90
39925;DHT22;25592;49.986;11.618;2023-01-10T18:45:25;7.00;99.90
39925;DHT22;25592;49.986;11.618;2023-01-10T18:48:12;6.90;99.90
39925;DHT22;25592;49.986;11.618;2023-01-10T18:51:01;7.00;99.90
39925;DHT22;25592;49.986;11.618;2023-01-10T18:53:46;6.90;99.90
39925;DHT22;25592;49.986;11.618;2023-01-10T18:56:33;6.90;99.90
39925;DHT22;25592;49.986;11.618;2023-01-10T18:59:18;7.00;99.90
39925;DHT22;25592;49.986;11.618;2023-01-10T19:02:04;6.90;99.90
39925;DHT22;25592;49.986;11.618;2023-01-10T19:04:50;7.00;99.90
39925;DHT22;25592;49.986;11.618;2023-01-10T19:07:35;7.00;99.90
39925;DHT22;25592;49.986;11.618;2023-01-10T19:10:21;7.00;99.90
39925;DHT22;25592;49.986;11.618;2023-01-10T19:13:06;7.00;99.90
39925;DHT22;25592;49.986;11.618;2023-01-10T19:15:52;7.00;99.90